Time;durP1;ratioP1;P1;durP2;ratioP2;P2;SDS_P1;SDS_P2;PMS_P1;PMS_P2;Temp;Humidity;BMP_temperature;BMP_pressure;BME280_temperature;BME280_humidity;BME280_pressure;Samples;Min_cycle;Max_cycle;Signal;HPM_P1;HPM_P2
2021/07/22 00:00:01;;;;;;;9.07;5.40;;;15.80;99.90;;;;;;5047501;28;20813;-75
2021/07/22 00:02:30;;;;;;;11.30;6.57;;;15.80;99.90;;;;;;5039920;28;20466;-75
2021/07/22 00:04:56;;;;;;;17.10;5.93;;;15.70;99.90;;;;;;5034769;28;20894;-76
2021/07/22 00:07:22;;;;;;;10.23;5.60;;;15.70;99.90;;;;;;5050421;28;20430;-76
2021/07/22 00:09:48;;;;;;;8.90;5.77;;;15.70;99.90;;;;;;5044847;28;20417;-76
2021/07/22 00:12:14;;;;;;;10.80;5.70;;;15.70;99.90;;;;;;5053879;28;20479;-74
2021/07/22 00:14:41;;;;;;;10.63;6.13;;;15.70;99.90;;;;;;5054267;28;20616;-73
2021/07/22 00:17:08;;;;;;;8.90;5.63;;;15.70;99.90;;;;;;5054509;28;20625;-73
2021/07/22 00:19:34;;;;;;;10.90;5.93;;;15.70;99.90;;;;;;5054607;28;20446;-73
2021/07/22 00:22:00;;;;;;;11.47;6.30;;;15.60;99.90;;;;;;5052922;28;20396;-73
2021/07/22 00:24:26;;;;;;;13.07;5.30;;;15.60;99.90;;;;;;5054594;28;20365;-73
2021/07/22 00:26:52;;;;;;;13.97;5.67;;;15.60;99.90;;;;;;5054097;28;20414;-73
2021/07/22 00:29:18;;;;;;;9.27;5.57;;;;;;;;;;5046639;28;20781;-74
2021/07/22 00:31:44;;;;;;;12.50;5.60;;;15.50;99.90;;;;;;5053912;28;20171;-74
2021/07/22 00:34:10;;;;;;;12.73;6.10;;;;;;;;;;5054264;28;20396;-73
2021/07/22 00:36:36;;;;;;;9.43;5.83;;;15.50;99.90;;;;;;5054308;28;20167;-73
2021/07/22 00:39:02;;;;;;;9.70;5.63;;;;;;;;;;5054026;28;20778;-73
2021/07/22 00:41:27;;;;;;;13.80;5.70;;;15.40;99.90;;;;;;5053527;28;20225;-73
2021/07/22 00:43:53;;;;;;;16.50;5.80;;;15.40;99.90;;;;;;5043457;28;20432;-73
2021/07/22 00:46:19;;;;;;;12.10;6.23;;;15.40;99.90;;;;;;5053757;28;20247;-74
2021/07/22 00:48:44;;;;;;;15.37;6.60;;;15.30;99.90;;;;;;5053822;28;20195;-74
2021/07/22 00:51:10;;;;;;;21.40;6.10;;;15.30;99.90;;;;;;5053814;28;20175;-73
2021/07/22 00:53:36;;;;;;;11.20;6.20;;;15.30;99.90;;;;;;5052792;28;20233;-73
2021/07/22 00:56:03;;;;;;;11.70;6.50;;;15.30;99.90;;;;;;5053959;28;20195;-73
2021/07/22 00:58:29;;;;;;;12.87;5.90;;;15.30;99.90;;;;;;5053207;28;20472;-73
2021/07/22 01:00:54;;;;;;;12.30;6.10;;;15.30;99.90;;;;;;5047722;28;20894;-76
2021/07/22 01:03:21;;;;;;;10.60;5.90;;;;;;;;;;5048791;28;20192;-76
2021/07/22 01:05:47;;;;;;;9.60;5.10;;;;;;;;;;5053491;28;20560;-76
2021/07/22 01:08:12;;;;;;;8.80;5.50;;;15.20;99.90;;;;;;5053845;28;20362;-76
2021/07/22 01:10:38;;;;;;;8.20;5.40;;;;;;;;;;5038747;28;20390;-76
2021/07/22 01:13:04;;;;;;;9.03;5.27;;;15.20;99.90;;;;;;5052912;28;20172;-76
2021/07/22 01:15:31;;;;;;;8.90;5.60;;;15.20;99.90;;;;;;5053403;28;20437;-76
2021/07/22 01:17:57;;;;;;;12.00;5.93;;;;;;;;;;5052847;28;20210;-76
2021/07/22 01:20:28;;;;;;;9.73;5.90;;;15.10;99.90;;;;;;5053549;28;20475;-76
2021/07/22 01:22:57;;;;;;;11.20;6.00;;;15.10;99.90;;;;;;5051417;28;20436;-76
2021/07/22 01:25:24;;;;;;;17.07;6.13;;;15.10;99.90;;;;;;5052865;28;20437;-76
2021/07/22 01:27:50;;;;;;;13.20;6.30;;;15.10;99.90;;;;;;5052857;28;20385;-76
2021/07/22 01:30:17;;;;;;;9.90;5.77;;;15.00;99.90;;;;;;5035372;28;20440;-74
2021/07/22 01:32:44;;;;;;;10.53;6.10;;;15.00;99.90;;;;;;5052196;28;20417;-74
2021/07/22 01:35:11;;;;;;;11.20;6.20;;;15.00;99.90;;;;;;5052520;28;20441;-74
2021/07/22 01:37:41;;;;;;;15.10;6.20;;;15.00;99.90;;;;;;5042984;28;20425;-74
2021/07/22 01:40:07;;;;;;;11.67;6.30;;;15.00;99.90;;;;;;5033669;28;20466;-73
2021/07/22 01:42:33;;;;;;;9.23;5.90;;;14.90;99.90;;;;;;5048015;28;20549;-73
2021/07/22 01:44:59;;;;;;;16.40;6.13;;;;;;;;;;5037621;28;20421;-76
2021/07/22 01:47:25;;;;;;;12.37;6.80;;;14.90;99.90;;;;;;5048176;28;20422;-76
2021/07/22 01:49:51;;;;;;;12.20;6.03;;;14.90;99.90;;;;;;5053102;28;20402;-76
2021/07/22 01:52:17;;;;;;;11.60;6.67;;;;;;;;;;5052925;28;20528;-76
2021/07/22 01:54:45;;;;;;;14.50;6.27;;;14.90;99.90;;;;;;5052121;28;20246;-76
2021/07/22 01:57:10;;;;;;;8.90;5.50;;;14.80;99.90;;;;;;5052020;28;20429;-76
2021/07/22 01:59:36;;;;;;;22.03;5.87;;;14.80;99.90;;;;;;5052914;28;20767;-76
2021/07/22 02:02:05;;;;;;;11.20;5.67;;;14.80;99.90;;;;;;5052254;28;20172;-76
2021/07/22 02:04:33;;;;;;;10.50;6.50;;;14.80;99.90;;;;;;5052546;28;20171;-76
2021/07/22 02:06:59;;;;;;;8.87;5.80;;;14.80;99.90;;;;;;5052504;28;20396;-76
2021/07/22 02:09:26;;;;;;;16.40;6.60;;;14.70;99.90;;;;;;5051148;28;20921;-76
2021/07/22 02:11:52;;;;;;;11.43;6.47;;;14.70;99.90;;;;;;5052650;28;20404;-76
2021/07/22 02:14:18;;;;;;;12.80;6.20;;;14.70;99.90;;;;;;5052852;28;20779;-76
2021/07/22 02:16:44;;;;;;;13.90;6.73;;;14.70;99.90;;;;;;5052105;28;20422;-73
2021/07/22 02:19:09;;;;;;;11.00;5.80;;;14.70;99.90;;;;;;5050800;28;20171;-73
2021/07/22 02:21:40;;;;;;;15.63;5.87;;;14.70;99.90;;;;;;5052197;28;20925;-73
2021/07/22 02:24:06;;;;;;;11.77;6.50;;;14.60;99.90;;;;;;5045368;28;20207;-73
2021/07/22 02:26:33;;;;;;;11.37;6.50;;;14.60;99.90;;;;;;5041338;28;20457;-73
2021/07/22 02:28:59;;;;;;;14.83;6.13;;;14.60;99.90;;;;;;5043114;28;20915;-73
2021/07/22 02:31:25;;;;;;;11.93;5.80;;;14.60;99.90;;;;;;5056244;28;20405;-76
2021/07/22 02:33:50;;;;;;;13.40;6.00;;;14.60;99.90;;;;;;5040376;28;20436;-76
2021/07/22 02:36:16;;;;;;;11.90;7.03;;;14.60;99.90;;;;;;5037635;28;20167;-76
2021/07/22 02:38:42;;;;;;;23.63;5.93;;;;;;;;;;5044886;28;20589;-76
2021/07/22 02:41:09;;;;;;;11.40;6.40;;;14.50;99.90;;;;;;5056170;28;20687;-76
2021/07/22 02:43:34;;;;;;;10.90;6.13;;;14.60;99.90;;;;;;5055367;28;20507;-76
2021/07/22 02:46:10;;;;;;;10.03;5.50;;;14.60;99.90;;;;;;5055407;28;20389;-76
2021/07/22 02:48:36;;;;;;;17.73;6.07;;;14.60;99.90;;;;;;5055112;28;20198;-76
2021/07/22 02:51:03;;;;;;;13.60;6.80;;;14.60;99.90;;;;;;5055878;28;20902;-76
2021/07/22 02:53:29;;;;;;;13.83;6.80;;;14.50;99.90;;;;;;5055896;28;20741;-76
2021/07/22 02:55:59;;;;;;;11.70;6.40;;;14.60;99.90;;;;;;5055141;28;20410;-76
2021/07/22 02:58:28;;;;;;;14.53;6.10;;;14.60;99.90;;;;;;5054928;28;20432;-76
2021/07/22 03:00:55;;;;;;;16.47;6.20;;;14.60;99.90;;;;;;5053719;28;20455;-73
2021/07/22 03:03:21;;;;;;;11.83;6.40;;;14.60;99.90;;;;;;5055570;28;20785;-73
2021/07/22 03:05:47;;;;;;;12.97;6.23;;;;;;;;;;5055386;28;20385;-74
2021/07/22 03:08:12;;;;;;;9.83;5.70;;;14.50;99.90;;;;;;5055575;28;20735;-74
2021/07/22 03:10:39;;;;;;;10.23;6.30;;;;;;;;;;5043432;28;20428;-73
2021/07/22 03:13:04;;;;;;;11.67;6.53;;;14.60;99.90;;;;;;5052359;28;20187;-73
2021/07/22 03:15:31;;;;;;;14.03;6.13;;;14.50;99.90;;;;;;5056324;28;20399;-75
2021/07/22 03:17:56;;;;;;;8.70;5.97;;;14.50;99.90;;;;;;5054262;28;20690;-76
2021/07/22 03:20:22;;;;;;;13.23;5.90;;;14.50;99.90;;;;;;5055972;28;20406;-76
2021/07/22 03:22:48;;;;;;;11.20;5.87;;;;;;;;;;5055005;28;20790;-76
2021/07/22 03:25:14;;;;;;;12.30;5.77;;;14.50;99.90;;;;;;5045124;28;20179;-76
2021/07/22 03:27:40;;;;;;;12.10;7.03;;;;;;;;;;5053925;28;20475;-76
2021/07/22 03:30:06;;;;;;;10.50;6.00;;;14.40;99.90;;;;;;5053969;28;20187;-76
2021/07/22 03:32:32;;;;;;;12.67;6.57;;;;;;;;;;5053831;28;20979;-73
2021/07/22 03:34:58;;;;;;;16.40;6.67;;;14.40;99.90;;;;;;5035751;28;20422;-73
2021/07/22 03:37:23;;;;;;;11.23;6.67;;;14.40;99.90;;;;;;5042782;28;21044;-73
2021/07/22 03:39:49;;;;;;;11.20;6.30;;;14.40;99.90;;;;;;5049589;28;20652;-73
2021/07/22 03:42:15;;;;;;;15.73;6.47;;;14.40;99.90;;;;;;5041575;28;20184;-73
2021/07/22 03:44:40;;;;;;;11.00;6.60;;;14.40;99.90;;;;;;5035600;28;20175;-73
2021/07/22 03:47:06;;;;;;;13.67;6.53;;;;;;;;;;5049390;28;20214;-74
2021/07/22 03:49:33;;;;;;;12.00;6.07;;;14.40;99.90;;;;;;5054984;28;20172;-79
2021/07/22 03:51:59;;;;;;;13.03;7.10;;;14.40;99.90;;;;;;5055310;28;20893;-79
2021/07/22 03:54:24;;;;;;;9.80;6.30;;;14.40;99.90;;;;;;5054561;28;20505;-80
2021/07/22 03:56:51;;;;;;;11.10;6.53;;;;;;;;;;5053766;28;20172;-79
2021/07/22 03:59:17;;;;;;;10.27;5.93;;;14.50;99.90;;;;;;5055032;28;20207;-79
2021/07/22 04:01:43;;;;;;;12.03;6.57;;;14.50;99.90;;;;;;5055174;28;20401;-80
2021/07/22 04:04:11;;;;;;;13.53;6.77;;;14.50;99.90;;;;;;5055076;28;20428;-79
2021/07/22 04:06:38;;;;;;;9.13;5.60;;;;;;;;;;5053955;28;20389;-79
2021/07/22 04:09:04;;;;;;;11.30;6.80;;;14.50;99.90;;;;;;5039105;28;20899;-79
2021/07/22 04:11:30;;;;;;;10.40;6.27;;;14.50;99.90;;;;;;5054768;28;20399;-79
2021/07/22 04:13:56;;;;;;;11.90;6.10;;;;;;;;;;5054550;28;20917;-79
2021/07/22 04:16:27;;;;;;;15.90;5.93;;;14.60;99.90;;;;;;5048416;28;20488;-79
2021/07/22 04:18:52;;;;;;;13.30;6.73;;;14.60;99.90;;;;;;5054191;28;20937;-79
2021/07/22 04:21:18;;;;;;;10.83;6.17;;;;;;;;;;5054801;28;20369;-79
2021/07/22 04:23:45;;;;;;;11.73;5.63;;;14.70;99.90;;;;;;5035544;28;20211;-79
2021/07/22 04:26:17;;;;;;;12.77;6.87;;;14.70;99.90;;;;;;5036095;28;20419;-81
2021/07/22 04:28:44;;;;;;;16.63;5.93;;;14.80;99.90;;;;;;5054185;28;20400;-79
2021/07/22 04:31:16;;;;;;;9.10;6.03;;;14.80;99.90;;;;;;5046355;28;20909;-80
2021/07/22 04:33:43;;;;;;;14.40;6.50;;;14.90;99.90;;;;;;5035891;28;20415;-79
2021/07/22 04:36:09;;;;;;;14.73;7.20;;;;;;;;;;5050926;28;20603;-80
2021/07/22 04:38:37;;;;;;;21.17;6.80;;;14.90;99.90;;;;;;5038187;28;20950;-80
2021/07/22 04:41:06;;;;;;;14.90;6.60;;;;;;;;;;5044312;28;20474;-80
2021/07/22 04:43:33;;;;;;;11.00;6.30;;;15.10;99.90;;;;;;5052798;28;20486;-80
2021/07/22 04:46:03;;;;;;;12.33;6.30;;;15.10;99.90;;;;;;5051158;28;20437;-80
2021/07/22 04:48:30;;;;;;;10.63;5.77;;;15.20;99.90;;;;;;5046016;28;20438;-80
2021/07/22 04:50:56;;;;;;;13.90;6.10;;;;;;;;;;5043166;28;20802;-81
2021/07/22 04:53:21;;;;;;;8.80;5.80;;;15.30;99.90;;;;;;5037120;28;20941;-80
2021/07/22 04:55:47;;;;;;;9.90;6.17;;;;;;;;;;5049428;28;20509;-80
2021/07/22 04:58:13;;;;;;;13.80;6.20;;;15.40;99.90;;;;;;5051690;28;20383;-80
2021/07/22 05:00:39;;;;;;;14.30;6.30;;;15.50;99.90;;;;;;5053311;28;20447;-81
2021/07/22 05:03:05;;;;;;;11.77;6.03;;;;;;;;;;5053582;28;20682;-83
2021/07/22 05:05:35;;;;;;;11.60;6.40;;;15.60;99.90;;;;;;5053510;28;20168;-83
2021/07/22 05:08:01;;;;;;;9.10;6.07;;;15.70;99.90;;;;;;5052822;28;20419;-84
2021/07/22 05:10:26;;;;;;;12.93;6.93;;;15.70;99.90;;;;;;5052993;28;20466;-82
2021/07/22 05:12:59;;;;;;;16.77;6.07;;;15.80;99.90;;;;;;5052761;28;20182;-83
2021/07/22 05:15:45;;;;;;;13.30;6.87;;;15.90;99.90;;;;;;5051476;28;20632;-83
2021/07/22 05:18:11;;;;;;;13.80;6.73;;;16.00;99.90;;;;;;5050151;28;20496;-80
2021/07/22 05:20:51;;;;;;;15.40;6.40;;;16.10;99.90;;;;;;5053592;28;20464;-80
2021/07/22 05:24:08;;;;;;;11.30;5.83;;;16.10;99.90;;;;;;5042762;28;20691;-80
2021/07/22 05:26:37;;;;;;;9.50;5.50;;;16.30;99.90;;;;;;5032850;28;20509;-80
2021/07/22 05:29:04;;;;;;;14.90;6.20;;;16.40;99.90;;;;;;5051049;28;20381;-80
2021/07/22 05:31:30;;;;;;;17.87;6.97;;;;;;;;;;5042428;28;20592;-80
2021/07/22 05:33:56;;;;;;;23.13;7.10;;;16.70;99.90;;;;;;5040026;28;20502;-74
2021/07/22 05:36:22;;;;;;;19.10;7.10;;;16.80;99.90;;;;;;5044276;28;20436;-73
2021/07/22 05:38:47;;;;;;;14.23;6.17;;;17.00;99.90;;;;;;5041349;28;20957;-73
2021/07/22 05:41:13;;;;;;;8.80;5.13;;;17.00;99.90;;;;;;5042559;28;20214;-73
2021/07/22 05:43:38;;;;;;;14.37;5.93;;;17.10;99.90;;;;;;5045368;28;20196;-74
2021/07/22 05:46:05;;;;;;;15.27;5.90;;;17.30;99.90;;;;;;5047385;28;20538;-74
2021/07/22 05:48:30;;;;;;;9.30;5.43;;;17.40;99.90;;;;;;5035083;28;20700;-75
2021/07/22 05:51:03;;;;;;;12.87;5.93;;;17.40;99.90;;;;;;5036650;28;20475;-75
2021/07/22 05:53:29;;;;;;;13.73;6.30;;;17.50;99.90;;;;;;5033067;28;20163;-75
2021/07/22 05:56:01;;;;;;;9.80;5.70;;;17.50;99.90;;;;;;5031480;28;20754;-76
2021/07/22 05:58:26;;;;;;;13.03;6.00;;;17.60;99.90;;;;;;5033341;28;20645;-76
2021/07/22 06:00:52;;;;;;;11.50;5.40;;;17.70;99.90;;;;;;5051014;28;20416;-75
2021/07/22 06:03:18;;;;;;;11.80;5.83;;;17.80;99.90;;;;;;5053141;28;20501;-74
2021/07/22 06:05:44;;;;;;;9.47;5.97;;;17.90;99.90;;;;;;5039172;28;20433;-74
2021/07/22 06:08:09;;;;;;;10.93;6.00;;;17.90;99.90;;;;;;5032910;28;20623;-74
2021/07/22 06:10:36;;;;;;;16.87;6.03;;;18.10;99.90;;;;;;5044615;28;20264;-74
2021/07/22 06:13:02;;;;;;;11.13;5.60;;;18.10;99.90;;;;;;5048069;28;20264;-74
2021/07/22 06:15:28;;;;;;;10.47;6.67;;;18.20;99.90;;;;;;5045487;28;20992;-74
2021/07/22 06:17:57;;;;;;;11.60;6.33;;;18.30;99.90;;;;;;5053247;28;20527;-76
2021/07/22 06:20:27;;;;;;;15.70;6.00;;;18.30;99.90;;;;;;5043746;28;20222;-76
2021/07/22 06:22:57;;;;;;;10.43;5.50;;;18.60;99.90;;;;;;5053006;28;20419;-76
2021/07/22 06:25:27;;;;;;;12.80;5.30;;;18.60;99.90;;;;;;5045172;28;20418;-76
2021/07/22 06:28:03;;;;;;;18.80;6.03;;;18.80;99.90;;;;;;5049728;28;20422;-76
2021/07/22 06:30:33;;;;;;;13.80;6.53;;;18.80;99.90;;;;;;5048670;28;20428;-76
2021/07/22 06:32:59;;;;;;;15.87;5.90;;;18.90;99.90;;;;;;5038692;28;20490;-76
2021/07/22 06:35:34;;;;;;;20.33;6.47;;;18.90;99.90;;;;;;5053097;28;20536;-76
2021/07/22 06:37:59;;;;;;;18.13;5.90;;;18.90;99.90;;;;;;5043866;28;20210;-76
2021/07/22 06:40:26;;;;;;;33.10;6.20;;;19.10;99.90;;;;;;5052968;28;20412;-76
2021/07/22 06:42:52;;;;;;;10.70;5.33;;;19.10;99.90;;;;;;5037696;28;20199;-76
2021/07/22 06:45:21;;;;;;;16.53;6.63;;;19.30;99.90;;;;;;5050685;28;20398;-76
2021/07/22 06:47:46;;;;;;;15.27;5.93;;;19.40;99.90;;;;;;5031830;28;20643;-73
2021/07/22 06:50:15;;;;;;;14.50;6.40;;;19.50;99.90;;;;;;5033044;28;20410;-74
2021/07/22 06:52:45;;;;;;;16.90;7.27;;;19.50;99.90;;;;;;5033440;28;20180;-73
2021/07/22 06:55:11;;;;;;;16.03;7.30;;;19.60;99.90;;;;;;5033193;28;20400;-70
2021/07/22 06:57:37;;;;;;;10.80;6.67;;;;;;;;;;5032898;28;20410;-70
2021/07/22 07:00:06;;;;;;;12.70;6.40;;;19.80;99.90;;;;;;5051215;28;20923;-70
2021/07/22 07:02:32;;;;;;;9.90;6.80;;;19.90;99.90;;;;;;5052991;28;20778;-72
2021/07/22 07:04:58;;;;;;;12.00;6.00;;;20.00;99.90;;;;;;5052720;28;20373;-70
2021/07/22 07:07:24;;;;;;;20.83;6.83;;;20.00;99.90;;;;;;5052210;28;20422;-77
2021/07/22 07:09:57;;;;;;;11.40;6.67;;;20.10;99.90;;;;;;5052382;28;20655;-81
2021/07/22 07:12:27;;;;;;;15.27;7.10;;;20.30;99.90;;;;;;5051323;28;20600;-80
2021/07/22 07:14:57;;;;;;;11.77;6.87;;;20.40;99.90;;;;;;5050528;28;20423;-80
2021/07/22 07:17:27;;;;;;;13.57;7.00;;;20.50;99.90;;;;;;5052704;28;20430;-77
2021/07/22 07:19:53;;;;;;;17.20;7.60;;;20.60;99.90;;;;;;5051869;28;20512;-79
2021/07/22 07:22:27;;;;;;;15.40;7.67;;;20.70;99.90;;;;;;5051615;28;20512;-73
2021/07/22 07:25:03;;;;;;;19.50;9.43;;;20.80;99.90;;;;;;5047677;28;20637;-74
2021/07/22 07:27:29;;;;;;;18.30;8.00;;;20.80;99.90;;;;;;5049315;28;20422;-74
2021/07/22 07:29:57;;;;;;;16.50;7.10;;;20.80;99.90;;;;;;5055887;28;20406;-74
2021/07/22 07:32:34;;;;;;;42.10;7.23;;;21.00;99.90;;;;;;5054330;28;20657;-74
2021/07/22 07:35:00;;;;;;;19.30;7.20;;;21.10;99.90;;;;;;5049713;28;20800;-74
2021/07/22 07:37:26;;;;;;;14.00;6.53;;;21.20;99.90;;;;;;5048179;28;20542;-74
2021/07/22 07:39:54;;;;;;;11.23;7.37;;;21.30;99.90;;;;;;5051671;28;20563;-76
2021/07/22 07:42:32;;;;;;;13.63;7.50;;;;;;;;;;5053611;28;20174;-76
2021/07/22 07:44:58;;;;;;;17.87;7.30;;;;;;;;;;5069467;28;20428;-76
2021/07/22 07:47:24;;;;;;;14.90;6.90;;;21.60;99.90;;;;;;5053456;28;20415;-76
2021/07/22 07:49:52;;;;;;;17.77;7.50;;;21.80;99.90;;;;;;5051425;28;20429;-77
2021/07/22 07:52:18;;;;;;;17.03;7.07;;;21.80;99.90;;;;;;5052019;28;20181;-76
2021/07/22 07:54:44;;;;;;;16.23;7.50;;;22.00;99.90;;;;;;5053134;28;20497;-76
2021/07/22 07:57:09;;;;;;;14.23;6.40;;;22.10;99.90;;;;;;5052230;28;20233;-77
2021/07/22 07:59:38;;;;;;;18.10;6.97;;;22.10;99.90;;;;;;5048743;28;20166;-77
2021/07/22 08:02:04;;;;;;;11.00;6.60;;;22.30;99.90;;;;;;5052129;28;20260;-76
2021/07/22 08:04:30;;;;;;;13.03;6.17;;;;;;;;;;5053753;28;20725;-80
2021/07/22 08:06:55;;;;;;;14.00;6.43;;;22.40;99.90;;;;;;5052451;28;20225;-80
2021/07/22 08:09:21;;;;;;;18.23;6.60;;;;;;;;;;5053165;28;20890;-80
2021/07/22 08:11:47;;;;;;;13.23;6.87;;;22.60;99.90;;;;;;5050371;28;20174;-80
2021/07/22 08:14:14;;;;;;;13.87;5.80;;;;;;;;;;5049930;28;20433;-80
2021/07/22 08:16:43;;;;;;;10.60;5.83;;;22.70;99.90;;;;;;5043191;28;20187;-80
2021/07/22 08:19:08;;;;;;;10.93;6.63;;;22.80;99.90;;;;;;5050469;28;20471;-77
2021/07/22 08:21:34;;;;;;;11.63;6.60;;;22.90;99.90;;;;;;5051851;28;20408;-76
2021/07/22 08:24:00;;;;;;;13.80;6.80;;;23.00;99.90;;;;;;5050040;28;20671;-76
2021/07/22 08:26:26;;;;;;;12.27;6.60;;;;;;;;;;5046493;28;20330;-76
2021/07/22 08:28:51;;;;;;;10.47;5.87;;;23.20;99.90;;;;;;5040628;28;20188;-76
2021/07/22 08:31:18;;;;;;;9.47;6.00;;;23.30;99.90;;;;;;5048374;28;20439;-76
2021/07/22 08:33:44;;;;;;;14.70;6.40;;;23.40;99.90;;;;;;5049636;28;20189;-76
2021/07/22 08:36:10;;;;;;;14.27;5.33;;;23.40;99.90;;;;;;5050273;28;20435;-80
2021/07/22 08:38:35;;;;;;;13.03;6.20;;;23.50;99.90;;;;;;5051819;28;20253;-80
2021/07/22 08:41:02;;;;;;;12.37;6.23;;;23.60;99.90;;;;;;5050788;28;20666;-80
2021/07/22 08:43:31;;;;;;;15.40;5.53;;;23.50;99.90;;;;;;5051293;28;20207;-80
2021/07/22 08:45:57;;;;;;;8.33;5.70;;;23.70;99.90;;;;;;5046400;28;20444;-80
2021/07/22 08:48:23;;;;;;;12.77;6.13;;;23.80;99.90;;;;;;5051009;28;22802;-80
2021/07/22 08:50:49;;;;;;;10.60;5.40;;;23.80;99.90;;;;;;5048906;28;20354;-80
2021/07/22 08:53:15;;;;;;;8.67;6.07;;;23.80;99.90;;;;;;5051970;28;20201;-80
2021/07/22 08:55:45;;;;;;;9.90;5.73;;;23.80;99.90;;;;;;5050263;28;20185;-80
2021/07/22 08:58:14;;;;;;;10.10;6.50;;;;;;;;;;5044397;28;20847;-80
2021/07/22 09:00:41;;;;;;;7.70;5.40;;;23.90;99.90;;;;;;5043656;28;20427;-76
2021/07/22 09:03:13;;;;;;;15.33;5.70;;;24.00;99.90;;;;;;5050065;28;20550;-80
2021/07/22 09:05:40;;;;;;;8.97;5.90;;;24.00;99.90;;;;;;5053763;28;20893;-80
2021/07/22 09:08:06;;;;;;;7.70;4.80;;;24.20;99.90;;;;;;5051683;28;20482;-80
2021/07/22 09:10:32;;;;;;;10.43;6.07;;;24.20;99.90;;;;;;5053308;28;20401;-80
2021/07/22 09:12:57;;;;;;;8.47;4.90;;;24.20;99.90;;;;;;5052326;28;20638;-80
2021/07/22 09:15:26;;;;;;;11.10;4.77;;;24.20;99.90;;;;;;5050629;28;20190;-80
2021/07/22 09:17:53;;;;;;;8.73;5.30;;;24.30;99.90;;;;;;5044240;28;20186;-80
2021/07/22 09:20:29;;;;;;;8.93;5.10;;;24.50;99.90;;;;;;5050904;28;20463;-80
2021/07/22 09:22:55;;;;;;;15.13;5.80;;;24.80;99.90;;;;;;5042534;28;20453;-80
2021/07/22 09:25:43;;;;;;;18.00;6.50;;;24.90;99.90;;;;;;5050464;28;20429;-80
2021/07/22 09:28:16;;;;;;;5.93;4.90;;;25.10;99.90;;;;;;5050400;28;20951;-80
2021/07/22 09:31:13;;;;;;;7.90;5.50;;;25.10;99.90;;;;;;5053223;28;20413;-76
2021/07/22 09:33:41;;;;;;;8.07;5.33;;;25.20;99.90;;;;;;5009906;28;20450;-76
2021/07/22 09:36:29;;;;;;;8.40;5.10;;;25.40;99.90;;;;;;5010953;28;20439;-76
2021/07/22 09:39:19;;;;;;;8.00;5.37;;;25.50;99.90;;;;;;4993921;28;20453;-76
2021/07/22 09:41:45;;;;;;;11.40;6.20;;;25.60;99.90;;;;;;5011210;28;20443;-76
2021/07/22 09:44:30;;;;;;;7.43;5.17;;;25.60;99.90;;;;;;5009931;28;20467;-76
2021/07/22 09:46:57;;;;;;;9.80;5.63;;;25.80;99.90;;;;;;5010567;28;20429;-76
2021/07/22 09:49:31;;;;;;;11.50;7.10;;;25.90;99.90;;;;;;5003556;28;20925;-76
2021/07/22 09:52:01;;;;;;;6.00;4.87;;;25.90;99.90;;;;;;5002129;28;20449;-76
2021/07/22 09:54:33;;;;;;;8.07;5.37;;;25.90;99.90;;;;;;5010387;28;20432;-76
2021/07/22 09:57:01;;;;;;;8.90;5.47;;;26.00;99.90;;;;;;5010546;28;20537;-79
2021/07/22 09:59:28;;;;;;;7.93;5.63;;;26.10;99.90;;;;;;5000580;28;20461;-79
2021/07/22 10:01:58;;;;;;;8.80;5.93;;;26.10;99.90;;;;;;5007825;28;20477;-79
2021/07/22 10:04:24;;;;;;;8.63;5.57;;;26.10;99.90;;;;;;5006243;28;20976;-79
2021/07/22 10:06:51;;;;;;;7.00;4.90;;;26.10;99.90;;;;;;5002625;28;20459;-78
2021/07/22 10:09:20;;;;;;;9.70;5.87;;;26.20;99.90;;;;;;5027368;28;20900;-78
2021/07/22 10:11:48;;;;;;;9.10;5.37;;;26.20;99.90;;;;;;5043499;28;20769;-78
2021/07/22 10:14:16;;;;;;;8.80;5.47;;;26.20;99.90;;;;;;5052138;28;20900;-78
2021/07/22 10:16:43;;;;;;;12.87;5.10;;;26.20;99.90;;;;;;5052554;28;20569;-78
2021/07/22 10:19:09;;;;;;;13.77;5.23;;;;;;;;;;5050559;28;20403;-78
2021/07/22 10:21:36;;;;;;;6.43;4.80;;;26.20;99.90;;;;;;5052502;28;20426;-78
2021/07/22 10:24:02;;;;;;;9.73;5.73;;;;;;;;;;5053710;28;20472;-78
2021/07/22 10:26:28;;;;;;;9.50;5.40;;;26.40;99.90;;;;;;5043073;28;20512;-78
2021/07/22 10:29:03;;;;;;;7.27;5.07;;;26.40;99.90;;;;;;5048924;28;20527;-78
2021/07/22 10:31:28;;;;;;;11.80;5.10;;;26.40;99.90;;;;;;5045535;28;20436;-78
2021/07/22 10:34:15;;;;;;;8.70;5.67;;;26.40;99.90;;;;;;5051499;28;20786;-78
2021/07/22 10:36:44;;;;;;;9.70;5.77;;;26.40;99.90;;;;;;5046771;28;20890;-80
2021/07/22 10:39:09;;;;;;;8.13;5.33;;;26.40;99.90;;;;;;5052356;28;20449;-79
2021/07/22 10:41:40;;;;;;;10.50;5.23;;;26.70;99.90;;;;;;5049082;28;20512;-78
2021/07/22 10:44:32;;;;;;;8.10;5.63;;;26.70;99.90;;;;;;5046345;28;20541;-79
2021/07/22 10:47:06;;;;;;;17.30;5.20;;;26.90;99.90;;;;;;5036461;28;20513;-79
2021/07/22 10:49:45;;;;;;;7.10;5.20;;;26.70;99.90;;;;;;5051714;28;20427;-79
2021/07/22 10:53:22;;;;;;;10.27;6.33;;;26.80;99.90;;;;;;5048721;28;20421;-79
2021/07/22 10:55:49;;;;;;;10.60;5.30;;;26.80;99.90;;;;;;4973860;28;20455;-79
2021/07/22 10:58:23;;;;;;;8.40;5.13;;;26.90;99.90;;;;;;4993133;28;20456;-78
2021/07/22 11:00:51;;;;;;;10.30;5.80;;;26.80;99.90;;;;;;4993274;28;20441;-78
2021/07/22 11:03:38;;;;;;;8.33;5.77;;;26.80;99.90;;;;;;4986598;28;20473;-78
2021/07/22 11:06:06;;;;;;;8.30;4.90;;;27.00;99.90;;;;;;4989157;28;20437;-78
2021/07/22 11:08:36;;;;;;;8.17;5.30;;;27.00;99.90;;;;;;4977395;28;20910;-79
2021/07/22 11:11:07;;;;;;;15.20;6.17;;;26.90;99.90;;;;;;4977965;28;20420;-79
2021/07/22 11:13:46;;;;;;;11.30;6.80;;;26.90;99.90;;;;;;4990410;28;20455;-80
2021/07/22 11:16:52;;;;;;;13.30;5.37;;;26.90;99.90;;;;;;4988430;28;20437;-79
2021/07/22 11:19:33;;;;;;;8.33;5.60;;;27.00;99.90;;;;;;4983190;28;20474;-79
2021/07/22 11:22:04;;;;;;;10.90;5.83;;;27.00;99.90;;;;;;4993652;28;20420;-79
2021/07/22 11:25:00;;;;;;;9.60;5.80;;;27.30;99.90;;;;;;4992870;28;20460;-79
2021/07/22 11:27:28;;;;;;;8.57;5.67;;;27.30;99.90;;;;;;4993451;28;20834;-80
2021/07/22 11:30:16;;;;;;;7.40;5.60;;;27.40;99.90;;;;;;5014134;28;20444;-80
2021/07/22 11:32:41;;;;;;;11.00;6.00;;;27.60;99.90;;;;;;5053870;28;20431;-80
2021/07/22 11:35:21;;;;;;;11.20;5.90;;;27.60;99.90;;;;;;5046936;28;20510;-79
2021/07/22 11:37:55;;;;;;;9.47;5.83;;;27.80;99.90;;;;;;5050642;28;20179;-79
2021/07/22 11:40:24;;;;;;;9.30;6.27;;;27.90;99.90;;;;;;5056205;28;20454;-80
2021/07/22 11:42:57;;;;;;;12.47;6.63;;;27.90;99.90;;;;;;5053528;28;20885;-80
2021/07/22 11:45:22;;;;;;;10.57;6.00;;;28.00;99.90;;;;;;5051570;28;20452;-80
2021/07/22 11:47:49;;;;;;;13.63;5.90;;;28.00;99.90;;;;;;5048904;28;20457;-80
2021/07/22 11:50:15;;;;;;;9.00;5.30;;;28.00;99.90;;;;;;5049608;28;20209;-80
2021/07/22 11:52:40;;;;;;;8.87;5.90;;;27.90;99.90;;;;;;5054859;28;20904;-80
2021/07/22 11:55:08;;;;;;;9.03;5.53;;;28.00;99.90;;;;;;5054860;28;20673;-79
2021/07/22 11:57:43;;;;;;;10.23;6.20;;;27.90;99.90;;;;;;5044147;28;20582;-77
2021/07/22 12:00:19;;;;;;;8.17;5.13;;;28.20;99.90;;;;;;5049235;28;20477;-77
2021/07/22 12:02:51;;;;;;;11.60;5.90;;;28.20;99.90;;;;;;5049042;28;20463;-76
2021/07/22 12:05:24;;;;;;;8.37;5.10;;;28.20;99.90;;;;;;5046234;28;20422;-76
2021/07/22 12:07:50;;;;;;;12.77;5.90;;;28.20;99.90;;;;;;5051790;28;20425;-76
2021/07/22 12:10:26;;;;;;;10.90;6.30;;;28.20;99.90;;;;;;5048536;28;20417;-76
2021/07/22 12:13:08;;;;;;;10.80;6.53;;;28.10;99.90;;;;;;5054192;28;20170;-76
2021/07/22 12:15:34;;;;;;;11.23;6.37;;;;;;;;;;5054628;28;20504;-76
2021/07/22 12:18:01;;;;;;;10.03;5.90;;;28.20;99.90;;;;;;5048344;28;20923;-76
2021/07/22 12:20:27;;;;;;;6.97;5.20;;;28.10;99.90;;;;;;5042043;28;20447;-76
2021/07/22 12:22:52;;;;;;;9.10;6.40;;;28.20;99.90;;;;;;5048950;28;20472;-78
2021/07/22 12:25:18;;;;;;;8.87;6.13;;;28.40;99.90;;;;;;5041449;28;20492;-78
2021/07/22 12:27:48;;;;;;;7.60;5.67;;;28.50;99.90;;;;;;5052683;28;20176;-79
2021/07/22 12:30:22;;;;;;;9.77;5.80;;;28.60;99.90;;;;;;5051832;28;20437;-79
2021/07/22 12:32:55;;;;;;;8.03;5.70;;;28.90;99.90;;;;;;5049010;28;20421;-80
2021/07/22 12:35:27;;;;;;;8.57;5.80;;;28.90;99.90;;;;;;5048514;28;20736;-80
2021/07/22 12:38:06;;;;;;;15.23;7.07;;;29.00;99.90;;;;;;5054083;28;20442;-77
2021/07/22 12:40:38;;;;;;;8.27;6.10;;;29.10;99.90;;;;;;5053249;28;20408;-76
2021/07/22 12:43:05;;;;;;;16.23;6.40;;;29.10;99.20;;;;;;5045446;28;20821;-76
2021/07/22 12:45:32;;;;;;;9.20;6.47;;;29.10;99.70;;;;;;5045311;28;20446;-76
2021/07/22 12:47:58;;;;;;;8.80;6.27;;;29.10;99.90;;;;;;5044015;28;20415;-76
2021/07/22 12:50:40;;;;;;;18.37;6.70;;;29.20;99.90;;;;;;5045482;28;20417;-76
2021/07/22 12:53:10;;;;;;;11.07;7.10;;;29.40;99.90;;;;;;5042133;28;20207;-77
2021/07/22 12:55:39;;;;;;;14.90;7.50;;;29.60;99.90;;;;;;5035660;28;20438;-75
2021/07/22 12:58:05;;;;;;;9.67;5.70;;;29.60;99.90;;;;;;5048731;28;20528;-76